Time;durP1;ratioP1;P1;durP2;ratioP2;P2;SDS_P1;SDS_P2;PMS_P1;PMS_P2;Temp;Humidity;BMP_temperature;BMP_pressure;BME280_temperature;BME280_humidity;BME280_pressure;Samples;Min_cycle;Max_cycle;Signal;HPM_P1;HPM_P2
2022/10/29 05:00:44;;;;;;;9.40;5.27;;;16.60;97.20;;;;;;1637538;30;20573;-70
2022/10/29 05:01:35;;;;;;;8.93;5.32;;;16.60;97.20;;;;;;1637570;30;20599;-70
2022/10/29 05:02:27;;;;;;;8.27;4.90;;;16.60;97.20;;;;;;1637576;30;20573;-69
2022/10/29 05:03:18;;;;;;;8.27;4.50;;;16.60;97.20;;;;;;1637526;30;20210;-69
2022/10/29 05:04:09;;;;;;;11.53;6.30;;;16.50;97.20;;;;;;1637459;30;20218;-69
2022/10/29 05:05:00;;;;;;;7.72;4.75;;;16.50;97.20;;;;;;1637543;30;20210;-69
2022/10/29 05:05:52;;;;;;;6.87;4.00;;;16.50;97.20;;;;;;1637596;30;20216;-70
2022/10/29 05:06:43;;;;;;;5.90;4.63;;;16.50;97.20;;;;;;1637191;30;20213;-69
2022/10/29 05:07:34;;;;;;;8.77;4.80;;;16.50;97.20;;;;;;1637538;30;20224;-69
2022/10/29 05:08:25;;;;;;;6.47;4.53;;;16.50;97.20;;;;;;1637468;30;20210;-69
2022/10/29 05:09:17;;;;;;;10.33;4.67;;;16.50;97.20;;;;;;1637598;30;20215;-69
2022/10/29 05:10:08;;;;;;;7.10;4.72;;;16.50;97.20;;;;;;1637468;30;20213;-69
2022/10/29 05:11:02;;;;;;;7.78;4.80;;;16.50;97.20;;;;;;1637486;30;20601;-69
2022/10/29 05:11:53;;;;;;;10.80;5.20;;;16.50;97.20;;;;;;1637555;30;20214;-69
2022/10/29 05:12:44;;;;;;;7.10;4.70;;;16.50;97.20;;;;;;1637489;30;20275;-69
2022/10/29 05:13:35;;;;;;;6.18;4.30;;;16.50;97.20;;;;;;1637544;30;20217;-69
2022/10/29 05:14:27;;;;;;;9.87;4.40;;;16.40;97.20;;;;;;1637472;30;20212;-70
2022/10/29 05:15:17;;;;;;;11.65;5.10;;;16.40;97.20;;;;;;1637461;30;20210;-69
2022/10/29 05:16:10;;;;;;;8.53;4.50;;;16.40;97.20;;;;;;1637217;30;20206;-69
2022/10/29 05:17:01;;;;;;;9.70;4.97;;;16.40;97.20;;;;;;1637419;30;20209;-70
2022/10/29 05:17:53;;;;;;;5.33;4.80;;;16.40;97.20;;;;;;1637439;30;20680;-69
2022/10/29 05:18:44;;;;;;;8.55;5.00;;;16.40;97.20;;;;;;1637448;30;20575;-69
2022/10/29 05:19:45;;;;;;;8.27;5.13;;;16.40;97.20;;;;;;1637462;30;20210;-70
2022/10/29 05:20:35;;;;;;;5.75;4.30;;;16.40;97.20;;;;;;1637467;30;20238;-70
2022/10/29 05:21:27;;;;;;;6.40;4.67;;;16.40;97.20;;;;;;1637476;30;20216;-69
2022/10/29 05:22:18;;;;;;;8.93;4.90;;;16.40;97.20;;;;;;1637446;30;20210;-70
2022/10/29 05:23:10;;;;;;;10.03;4.87;;;16.30;97.20;;;;;;1636459;30;20206;-69
2022/10/29 05:24:02;;;;;;;9.13;5.28;;;16.30;97.20;;;;;;1637451;30;20210;-69
2022/10/29 05:24:53;;;;;;;9.05;4.72;;;16.30;97.20;;;;;;1637012;30;20210;-69
2022/10/29 05:25:47;;;;;;;8.03;4.77;;;16.30;97.20;;;;;;1637452;30;20248;-69
2022/10/29 05:26:38;;;;;;;7.68;4.53;;;16.30;97.20;;;;;;1637137;30;20862;-69
2022/10/29 05:27:30;;;;;;;6.63;4.80;;;16.30;97.20;;;;;;1637383;30;20639;-70
2022/10/29 05:28:22;;;;;;;7.32;4.60;;;16.20;97.20;;;;;;1637440;30;20209;-70
2022/10/29 05:29:14;;;;;;;7.85;4.18;;;16.20;97.20;;;;;;1637316;30;20209;-68
2022/10/29 05:30:09;;;;;;;8.77;4.55;;;16.20;97.20;;;;;;1637277;30;20218;-67
2022/10/29 05:31:01;;;;;;;8.73;5.03;;;16.20;97.20;;;;;;1646684;30;20233;-68
2022/10/29 05:31:53;;;;;;;7.85;4.53;;;16.10;97.20;;;;;;1658177;29;21453;-68
2022/10/29 05:32:45;;;;;;;6.20;5.15;;;16.10;97.20;;;;;;1662186;29;20207;-68
2022/10/29 05:33:35;;;;;;;8.02;4.72;;;16.10;97.20;;;;;;1662186;29;20218;-69
2022/10/29 05:34:27;;;;;;;9.20;5.40;;;16.10;97.20;;;;;;1662271;29;20199;-69
2022/10/29 05:35:18;;;;;;;7.88;5.28;;;16.10;97.20;;;;;;1662254;29;20214;-69
2022/10/29 05:36:10;;;;;;;8.07;4.77;;;16.10;97.20;;;;;;1661875;29;20217;-69
2022/10/29 05:37:01;;;;;;;10.40;5.35;;;16.00;97.20;;;;;;1663938;29;20229;-69
2022/10/29 05:37:53;;;;;;;8.97;5.37;;;16.00;97.20;;;;;;1668423;29;20203;-69
2022/10/29 05:38:43;;;;;;;8.25;5.13;;;16.00;97.20;;;;;;1668376;29;20211;-70
2022/10/29 05:39:35;;;;;;;9.70;5.23;;;16.00;97.20;;;;;;1668209;29;20206;-70
2022/10/29 05:40:26;;;;;;;6.60;5.00;;;16.00;97.20;;;;;;1668321;29;20206;-69
2022/10/29 05:41:18;;;;;;;11.45;5.15;;;16.00;97.20;;;;;;1668389;29;20202;-69
2022/10/29 05:42:09;;;;;;;9.48;6.50;;;16.00;97.20;;;;;;1668376;29;20221;-69
2022/10/29 05:43:01;;;;;;;8.73;4.83;;;16.00;97.20;;;;;;1668391;29;20206;-69
2022/10/29 05:43:51;;;;;;;7.75;5.35;;;16.00;97.20;;;;;;1668452;29;20211;-69
2022/10/29 05:44:43;;;;;;;9.90;5.20;;;16.00;97.20;;;;;;1668325;29;20230;-70
2022/10/29 05:45:34;;;;;;;6.25;5.00;;;16.00;97.20;;;;;;1668304;29;20552;-69
2022/10/29 05:46:25;;;;;;;8.57;5.23;;;15.90;97.20;;;;;;1667993;29;20253;-69
2022/10/29 05:47:17;;;;;;;10.55;5.13;;;15.90;97.20;;;;;;1668251;29;20206;-69
2022/10/29 05:48:10;;;;;;;8.15;5.35;;;15.90;97.20;;;;;;1668415;29;20293;-69
2022/10/29 05:49:01;;;;;;;9.98;4.90;;;15.90;97.20;;;;;;1668384;29;20217;-69
2022/10/29 05:49:53;;;;;;;14.27;5.77;;;15.90;97.20;;;;;;1668129;29;20213;-70
2022/10/29 05:50:44;;;;;;;12.80;5.70;;;15.90;97.20;;;;;;1668263;29;20226;-69
2022/10/29 05:51:35;;;;;;;9.60;5.20;;;15.90;97.20;;;;;;1668485;29;20217;-69
2022/10/29 05:52:26;;;;;;;11.05;5.70;;;15.90;97.20;;;;;;1668480;29;20214;-69
2022/10/29 05:53:18;;;;;;;7.07;5.37;;;15.90;97.20;;;;;;1668467;29;20212;-69
2022/10/29 05:54:08;;;;;;;7.32;5.05;;;15.90;97.20;;;;;;1668438;29;20210;-69
2022/10/29 05:55:00;;;;;;;7.83;5.00;;;15.90;97.20;;;;;;1668784;29;20209;-69
2022/10/29 05:55:51;;;;;;;11.00;4.72;;;15.90;97.20;;;;;;1668356;29;20206;-69
2022/10/29 05:56:42;;;;;;;10.87;5.57;;;15.90;97.20;;;;;;1668097;29;20203;-69
2022/10/29 05:57:33;;;;;;;5.45;4.45;;;15.90;97.20;;;;;;1668402;29;20292;-69
2022/10/29 05:58:25;;;;;;;11.17;5.83;;;15.90;97.20;;;;;;1668398;29;20207;-69
2022/10/29 05:59:16;;;;;;;10.18;5.30;;;15.90;97.20;;;;;;1668331;29;20708;-69
2022/10/29 06:00:09;;;;;;;7.03;4.90;;;15.90;97.20;;;;;;1668144;29;20687;-69
2022/10/29 06:01:04;;;;;;;7.97;5.25;;;15.90;97.20;;;;;;1668331;29;20234;-69
2022/10/29 06:01:56;;;;;;;9.43;5.78;;;15.90;97.20;;;;;;1668434;29;20605;-69
2022/10/29 06:02:48;;;;;;;9.52;5.22;;;15.90;97.20;;;;;;1668398;29;20222;-69
2022/10/29 06:03:39;;;;;;;8.90;5.75;;;15.90;97.20;;;;;;1668838;29;20219;-69
2022/10/29 06:04:30;;;;;;;10.02;4.95;;;15.90;97.20;;;;;;1669495;29;20211;-69
2022/10/29 06:05:22;;;;;;;11.00;6.03;;;15.90;97.20;;;;;;1669517;29;20207;-69
2022/10/29 06:06:13;;;;;;;9.52;5.68;;;15.90;97.20;;;;;;1669239;29;20589;-69
2022/10/29 06:07:04;;;;;;;9.87;5.83;;;15.90;97.20;;;;;;1669495;29;20221;-69
2022/10/29 06:07:56;;;;;;;16.75;6.25;;;15.90;97.20;;;;;;1669630;29;20221;-69
2022/10/29 06:08:48;;;;;;;12.43;6.00;;;15.80;97.20;;;;;;1669640;29;20285;-69
2022/10/29 06:09:38;;;;;;;10.18;6.10;;;15.80;97.20;;;;;;1669526;29;20210;-69
2022/10/29 06:10:30;;;;;;;7.77;6.30;;;15.80;97.20;;;;;;1669446;29;20206;-68
2022/10/29 06:11:21;;;;;;;9.05;6.30;;;15.80;97.20;;;;;;1669489;29;20207;-68
2022/10/29 06:12:13;;;;;;;14.20;6.70;;;15.80;97.20;;;;;;1669548;29;20203;-68
2022/10/29 06:13:09;;;;;;;13.18;6.60;;;15.80;97.20;;;;;;1669418;29;20590;-69
2022/10/29 06:14:01;;;;;;;10.63;6.60;;;15.80;97.20;;;;;;1669483;29;20285;-68
2022/10/29 06:14:52;;;;;;;12.23;6.28;;;15.80;97.20;;;;;;1669495;29;20211;-68
2022/10/29 06:15:44;;;;;;;8.00;5.73;;;15.80;97.20;;;;;;1669459;29;20285;-69
2022/10/29 06:16:34;;;;;;;10.00;5.75;;;15.80;97.20;;;;;;1669012;29;20724;-68
2022/10/29 06:17:26;;;;;;;7.40;5.63;;;15.80;97.20;;;;;;1669325;29;20573;-68
2022/10/29 06:18:18;;;;;;;8.07;5.70;;;15.80;97.20;;;;;;1669191;29;20213;-68
2022/10/29 06:19:10;;;;;;;8.55;5.93;;;15.80;97.20;;;;;;1669469;29;20270;-68
2022/10/29 06:20:01;;;;;;;11.73;6.32;;;15.80;97.20;;;;;;1669419;29;20210;-68
2022/10/29 06:20:53;;;;;;;8.27;6.23;;;15.80;97.20;;;;;;1669427;29;20226;-68
2022/10/29 06:21:43;;;;;;;9.18;6.60;;;15.80;97.20;;;;;;1669474;29;20217;-68
2022/10/29 06:22:35;;;;;;;11.43;7.27;;;15.80;97.20;;;;;;1669567;29;20206;-69
2022/10/29 06:23:26;;;;;;;13.05;7.47;;;15.80;97.20;;;;;;1669424;29;20202;-68
2022/10/29 06:24:18;;;;;;;13.70;7.30;;;15.80;97.20;;;;;;1669408;29;20285;-68
2022/10/29 06:25:09;;;;;;;10.15;7.45;;;15.80;97.20;;;;;;1669323;29;20265;-68
2022/10/29 06:26:02;;;;;;;13.20;8.00;;;15.70;97.20;;;;;;1669430;29;20203;-68
2022/10/29 06:26:53;;;;;;;11.77;7.93;;;15.70;97.20;;;;;;1669130;29;20864;-68
2022/10/29 06:27:44;;;;;;;10.83;8.43;;;15.70;97.20;;;;;;1669365;29;20571;-68
2022/10/29 06:28:35;;;;;;;13.48;8.35;;;15.70;97.20;;;;;;1669424;29;20207;-68
2022/10/29 06:29:27;;;;;;;11.80;8.60;;;15.70;97.20;;;;;;1669396;29;20203;-68
2022/10/29 06:30:17;;;;;;;12.38;8.90;;;15.70;97.20;;;;;;1668977;29;20210;-68
2022/10/29 06:31:09;;;;;;;10.20;9.17;;;15.70;97.20;;;;;;1661719;29;20223;-68
2022/10/29 06:32:00;;;;;;;17.25;9.80;;;15.70;97.20;;;;;;1662008;29;20600;-68
2022/10/29 06:32:51;;;;;;;10.00;8.70;;;15.70;97.20;;;;;;1663115;29;20229;-68
2022/10/29 06:33:43;;;;;;;12.73;9.88;;;15.70;97.20;;;;;;1667270;29;20214;-68
2022/10/29 06:34:35;;;;;;;17.60;8.82;;;15.70;97.20;;;;;;1669446;29;20214;-68
2022/10/29 06:35:27;;;;;;;12.85;9.77;;;15.70;97.20;;;;;;1669296;29;20225;-68
2022/10/29 06:36:18;;;;;;;10.70;8.35;;;15.70;97.20;;;;;;1669035;29;20249;-70
2022/10/29 06:37:09;;;;;;;10.35;8.40;;;15.70;97.20;;;;;;1669349;29;20206;-68
2022/10/29 06:38:02;;;;;;;10.63;9.40;;;15.70;97.20;;;;;;1669300;29;20688;-68
2022/10/29 06:38:52;;;;;;;10.90;8.50;;;15.70;97.20;;;;;;1669384;29;20851;-68
2022/10/29 06:39:44;;;;;;;9.03;7.97;;;15.70;97.20;;;;;;1669353;29;20229;-68
2022/10/29 06:40:35;;;;;;;12.75;8.07;;;15.70;97.20;;;;;;1669345;29;20238;-68
2022/10/29 06:41:27;;;;;;;11.65;8.45;;;15.70;97.20;;;;;;1669294;29;20206;-68
2022/10/29 06:42:18;;;;;;;14.70;8.18;;;15.70;97.20;;;;;;1669322;29;20338;-68
2022/10/29 06:43:11;;;;;;;9.60;8.60;;;15.70;97.20;;;;;;1669274;29;20206;-68
2022/10/29 06:44:02;;;;;;;14.60;7.95;;;15.70;97.20;;;;;;1669282;29;20210;-68
2022/10/29 06:44:54;;;;;;;11.00;7.77;;;15.70;97.20;;;;;;1669249;29;20209;-68
2022/10/29 06:45:44;;;;;;;9.98;7.93;;;15.70;97.20;;;;;;1669278;29;20459;-70
2022/10/29 06:46:37;;;;;;;9.00;6.80;;;15.70;97.20;;;;;;1669113;29;20218;-69
2022/10/29 06:47:28;;;;;;;9.50;7.35;;;15.70;97.20;;;;;;1669257;29;20207;-70
2022/10/29 06:48:20;;;;;;;9.07;7.33;;;15.70;97.20;;;;;;1669305;29;20207;-69
2022/10/29 06:49:12;;;;;;;9.00;7.20;;;15.70;97.20;;;;;;1669358;29;20222;-70
2022/10/29 06:50:04;;;;;;;8.82;6.97;;;15.70;97.20;;;;;;1668976;29;20206;-69
2022/10/29 06:50:57;;;;;;;9.45;7.20;;;15.70;97.20;;;;;;1669203;29;20230;-70
2022/10/29 06:51:49;;;;;;;7.90;6.72;;;15.70;97.20;;;;;;1669223;29;20666;-70
2022/10/29 06:52:40;;;;;;;10.20;7.20;;;15.70;97.20;;;;;;1669273;29;20210;-70
2022/10/29 06:53:32;;;;;;;10.07;6.50;;;15.70;97.20;;;;;;1669251;29;20199;-69
2022/10/29 06:54:22;;;;;;;8.75;6.88;;;15.70;97.20;;;;;;1669194;29;20210;-70
2022/10/29 06:55:13;;;;;;;6.60;6.00;;;15.80;97.20;;;;;;1669389;29;20213;-69
2022/10/29 06:56:05;;;;;;;13.70;6.93;;;15.80;97.20;;;;;;1669219;29;20213;-69
2022/10/29 06:56:56;;;;;;;10.80;6.10;;;15.80;97.20;;;;;;1668844;29;20214;-69
2022/10/29 06:57:47;;;;;;;8.87;6.40;;;15.80;97.20;;;;;;1669164;29;20211;-70
2022/10/29 06:58:38;;;;;;;8.18;5.75;;;15.80;97.20;;;;;;1669254;29;20566;-69
2022/10/29 06:59:30;;;;;;;10.80;5.83;;;15.80;97.20;;;;;;1669228;29;20599;-69
2022/10/29 07:00:21;;;;;;;10.45;5.38;;;15.80;97.20;;;;;;1668869;29;20210;-69
2022/10/29 07:01:12;;;;;;;10.00;6.37;;;15.80;97.20;;;;;;1669249;29;20202;-69
2022/10/29 07:02:03;;;;;;;8.13;5.78;;;15.80;97.20;;;;;;1669204;29;20554;-69
2022/10/29 07:02:55;;;;;;;9.33;5.43;;;15.80;97.20;;;;;;1669287;29;20206;-69
2022/10/29 07:03:46;;;;;;;11.73;5.57;;;15.80;97.20;;;;;;1669247;29;20578;-69
2022/10/29 07:04:39;;;;;;;9.33;6.13;;;15.90;97.20;;;;;;1669212;29;20646;-69
2022/10/29 07:05:30;;;;;;;7.80;4.90;;;15.90;97.20;;;;;;1669143;29;20238;-69
2022/10/29 07:06:22;;;;;;;8.55;5.80;;;15.90;97.20;;;;;;1669004;29;20214;-69
2022/10/29 07:07:13;;;;;;;7.68;5.63;;;15.90;97.20;;;;;;1668469;29;20759;-69
2022/10/29 07:08:05;;;;;;;8.25;5.63;;;15.90;97.20;;;;;;1668811;29;20260;-69
2022/10/29 07:08:55;;;;;;;7.13;5.50;;;15.90;97.20;;;;;;1669170;29;20218;-69
2022/10/29 07:09:46;;;;;;;6.37;5.00;;;15.90;97.20;;;;;;1669227;29;20206;-69
2022/10/29 07:10:39;;;;;;;9.10;5.63;;;16.00;97.20;;;;;;1669073;29;20230;-70
2022/10/29 07:11:29;;;;;;;11.48;6.07;;;16.00;97.20;;;;;;1669132;29;20203;-69
2022/10/29 07:12:21;;;;;;;8.77;6.20;;;16.00;97.20;;;;;;1669162;29;20211;-70
2022/10/29 07:13:12;;;;;;;11.10;5.28;;;16.00;97.20;;;;;;1669157;29;20218;-70
2022/10/29 07:14:04;;;;;;;10.93;5.70;;;16.00;97.20;;;;;;1669108;29;20214;-69
2022/10/29 07:14:55;;;;;;;8.57;6.05;;;16.10;97.20;;;;;;1669190;29;20210;-70
2022/10/29 07:15:47;;;;;;;13.77;6.97;;;16.10;97.20;;;;;;1668607;29;20266;-69
2022/10/29 07:16:37;;;;;;;12.05;6.20;;;16.10;97.20;;;;;;1668784;29;20596;-70
2022/10/29 07:17:29;;;;;;;8.60;6.10;;;16.20;97.20;;;;;;1669048;29;20261;-70
2022/10/29 07:18:20;;;;;;;9.80;5.65;;;16.20;97.20;;;;;;1669113;29;20206;-70
2022/10/29 07:19:11;;;;;;;11.00;5.80;;;16.30;97.20;;;;;;1669101;29;20212;-70
2022/10/29 07:20:06;;;;;;;13.00;5.57;;;16.30;97.20;;;;;;1669098;29;20210;-67
2022/10/29 07:20:58;;;;;;;7.40;6.50;;;16.30;97.20;;;;;;1669028;29;20241;-68
2022/10/29 07:21:48;;;;;;;10.18;6.15;;;16.30;97.20;;;;;;1669090;29;20599;-69
2022/10/29 07:22:40;;;;;;;9.60;6.47;;;16.40;97.20;;;;;;1669115;29;20203;-67
2022/10/29 07:23:31;;;;;;;14.73;6.68;;;16.40;97.20;;;;;;1668849;29;20668;-70
2022/10/29 07:24:22;;;;;;;11.93;5.97;;;16.40;97.20;;;;;;1669025;29;20760;-68
2022/10/29 07:25:13;;;;;;;8.27;5.60;;;16.40;97.20;;;;;;1669023;29;20206;-68
2022/10/29 07:26:05;;;;;;;10.23;5.90;;;16.50;97.20;;;;;;1669027;29;20210;-68
2022/10/29 07:26:56;;;;;;;8.80;6.00;;;16.50;97.20;;;;;;1668733;29;20463;-68
2022/10/29 07:27:48;;;;;;;11.63;6.33;;;16.50;97.20;;;;;;1668967;29;20206;-67
2022/10/29 07:28:38;;;;;;;7.00;5.85;;;16.60;97.20;;;;;;1668675;29;20561;-67
2022/10/29 07:29:30;;;;;;;6.80;6.07;;;16.60;97.20;;;;;;1668966;29;20568;-67
2022/10/29 07:30:21;;;;;;;12.70;6.75;;;16.60;97.20;;;;;;1668894;29;20210;-68
2022/10/29 07:31:13;;;;;;;7.95;6.50;;;16.60;97.20;;;;;;1669114;29;20209;-68
2022/10/29 07:32:04;;;;;;;10.40;6.20;;;16.70;97.20;;;;;;1634072;29;1039644;-68
2022/10/29 07:32:56;;;;;;;13.02;6.38;;;16.70;97.20;;;;;;1669081;29;20658;-68
2022/10/29 07:33:46;;;;;;;10.60;6.90;;;16.70;97.20;;;;;;1669040;29;20214;-69
2022/10/29 07:34:38;;;;;;;10.57;6.47;;;16.70;97.20;;;;;;1669011;29;20210;-68
2022/10/29 07:35:32;;;;;;;8.23;5.78;;;16.70;97.20;;;;;;1668953;29;20199;-70
2022/10/29 07:36:24;;;;;;;9.85;5.88;;;16.70;97.20;;;;;;1668716;29;20207;-67
2022/10/29 07:37:14;;;;;;;10.48;6.28;;;16.70;97.20;;;;;;1668562;29;20624;-68
2022/10/29 07:38:07;;;;;;;10.97;5.97;;;16.70;97.20;;;;;;1668461;29;20203;-68
2022/10/29 07:38:58;;;;;;;9.38;6.13;;;16.80;97.20;;;;;;1668906;29;20214;-68
2022/10/29 07:39:49;;;;;;;11.17;5.90;;;16.80;97.20;;;;;;1669125;29;20203;-70
2022/10/29 07:40:47;;;;;;;9.70;7.05;;;16.80;97.20;;;;;;1668438;29;20230;-69
2022/10/29 07:41:38;;;;;;;11.30;6.60;;;16.90;97.20;;;;;;1668967;29;20293;-67
2022/10/29 07:42:29;;;;;;;7.25;5.88;;;16.90;97.20;;;;;;1668982;29;20211;-67
2022/10/29 07:43:22;;;;;;;10.67;5.40;;;17.00;97.20;;;;;;1668910;29;20198;-68
2022/10/29 07:44:13;;;;;;;10.98;5.88;;;17.00;97.20;;;;;;1668889;29;20596;-67
2022/10/29 07:45:06;;;;;;;14.03;6.20;;;17.10;97.20;;;;;;1668926;29;20210;-67
2022/10/29 07:45:56;;;;;;;9.80;6.13;;;17.10;97.20;;;;;;1668946;29;20210;-68
2022/10/29 07:46:48;;;;;;;11.43;5.90;;;17.20;97.20;;;;;;1668740;29;20214;-69
2022/10/29 07:47:39;;;;;;;11.43;5.43;;;17.20;97.20;;;;;;1668884;29;20209;-68
2022/10/29 07:48:30;;;;;;;11.30;5.40;;;17.30;97.20;;;;;;1669030;29;20205;-69
2022/10/29 07:49:21;;;;;;;12.10;5.88;;;17.40;97.20;;;;;;1669092;29;20217;-68
2022/10/29 07:50:13;;;;;;;13.00;5.90;;;17.40;97.20;;;;;;1668798;29;20221;-68
2022/10/29 07:51:05;;;;;;;9.00;4.65;;;17.50;97.20;;;;;;1668254;29;20218;-69
2022/10/29 07:51:57;;;;;;;9.55;5.10;;;17.50;97.20;;;;;;1668995;29;20238;-67
2022/10/29 07:52:48;;;;;;;9.27;5.53;;;17.60;97.20;;;;;;1668861;29;20218;-67
2022/10/29 07:53:39;;;;;;;10.50;6.07;;;17.60;97.20;;;;;;1668874;29;20207;-67
2022/10/29 07:54:30;;;;;;;11.13;5.20;;;17.70;97.20;;;;;;1668984;29;20661;-66
2022/10/29 07:55:22;;;;;;;7.40;5.10;;;17.80;97.20;;;;;;1668852;29;20726;-67
2022/10/29 07:56:12;;;;;;;13.38;5.30;;;17.80;97.20;;;;;;1668269;29;20213;-67
2022/10/29 07:57:04;;;;;;;10.70;5.00;;;17.90;97.20;;;;;;1668789;29;20201;-66
2022/10/29 07:57:57;;;;;;;9.98;5.30;;;17.90;97.20;;;;;;1668783;29;20297;-66
2022/10/29 07:58:49;;;;;;;11.07;4.95;;;18.00;97.20;;;;;;1668949;29;20297;-67
2022/10/29 07:59:40;;;;;;;9.43;6.07;;;18.10;97.20;;;;;;1668904;29;20586;-67
2022/10/29 08:00:33;;;;;;;11.77;4.90;;;18.10;97.20;;;;;;1668854;29;20206;-67
2022/10/29 08:01:24;;;;;;;9.02;5.47;;;18.10;97.20;;;;;;1668903;29;20207;-67
2022/10/29 08:02:16;;;;;;;8.33;5.60;;;18.20;97.20;;;;;;1668526;29;20194;-68
2022/10/29 08:03:06;;;;;;;11.32;5.38;;;18.30;97.20;;;;;;1668881;29;20744;-67
2022/10/29 08:03:58;;;;;;;12.10;5.07;;;18.30;97.20;;;;;;1668804;29;20599;-67
2022/10/29 08:04:49;;;;;;;10.25;5.80;;;18.40;97.20;;;;;;1668870;29;20459;-68
2022/10/29 08:05:41;;;;;;;7.50;4.73;;;18.40;97.20;;;;;;1668765;29;20235;-68
2022/10/29 08:06:33;;;;;;;10.90;5.35;;;18.50;97.20;;;;;;1668591;29;20206;-68
2022/10/29 08:07:25;;;;;;;8.63;4.80;;;18.50;97.20;;;;;;1668760;29;20262;-68
2022/10/29 08:08:16;;;;;;;8.88;5.13;;;18.60;97.20;;;;;;1668819;29;20207;-68
2022/10/29 08:09:08;;;;;;;9.00;4.65;;;18.60;97.20;;;;;;1668767;29;20741;-68
2022/10/29 08:09:59;;;;;;;9.70;5.15;;;18.70;97.20;;;;;;1668763;29;20218;-71
2022/10/29 08:10:50;;;;;;;8.60;5.13;;;18.80;97.20;;;;;;1668785;29;20222;-67
2022/10/29 08:11:41;;;;;;;9.23;4.80;;;18.80;97.20;;;;;;1668809;29;20202;-69
2022/10/29 08:12:33;;;;;;;7.13;5.60;;;18.90;97.20;;;;;;1668760;29;20213;-69
2022/10/29 08:13:24;;;;;;;10.55;4.75;;;18.90;97.20;;;;;;1668759;29;20211;-69
2022/10/29 08:14:15;;;;;;;10.23;5.60;;;19.00;97.20;;;;;;1668700;29;20210;-69
2022/10/29 08:15:07;;;;;;;10.70;5.57;;;19.10;97.20;;;;;;1668755;29;20579;-69
2022/10/29 08:15:59;;;;;;;8.80;4.95;;;19.20;97.20;;;;;;1668751;29;20264;-68
2022/10/29 08:16:52;;;;;;;7.97;5.18;;;19.30;97.20;;;;;;1668507;29;20207;-68
2022/10/29 08:17:44;;;;;;;9.60;6.10;;;19.30;97.20;;;;;;1668676;29;20245;-68
2022/10/29 08:18:35;;;;;;;12.80;6.30;;;19.40;97.20;;;;;;1668783;29;20213;-68
2022/10/29 08:19:28;;;;;;;12.43;5.40;;;19.50;97.20;;;;;;1668739;29;20281;-69
2022/10/29 08:20:21;;;;;;;10.52;5.20;;;19.60;97.20;;;;;;1668672;29;20207;-71
2022/10/29 08:21:12;;;;;;;7.75;6.32;;;19.70;97.20;;;;;;1668745;29;20211;-69
2022/10/29 08:22:05;;;;;;;12.25;6.00;;;19.80;97.20;;;;;;1668698;29;20215;-68
2022/10/29 08:22:59;;;;;;;8.80;5.55;;;19.90;97.20;;;;;;1668711;29;20274;-68
2022/10/29 08:23:49;;;;;;;9.02;5.70;;;19.90;97.20;;;;;;1668729;29;20210;-68
2022/10/29 08:24:41;;;;;;;8.83;5.70;;;20.00;97.20;;;;;;1668684;29;20217;-67
2022/10/29 08:25:32;;;;;;;12.30;6.57;;;20.10;97.20;;;;;;1668617;29;20211;-69
2022/10/29 08:26:23;;;;;;;11.60;6.17;;;20.20;97.20;;;;;;1668467;29;20211;-72
2022/10/29 08:27:14;;;;;;;11.07;5.53;;;20.30;97.20;;;;;;1666830;29;20199;-68
2022/10/29 08:28:07;;;;;;;18.10;7.00;;;20.30;97.20;;;;;;1668451;29;20211;-69
2022/10/29 08:28:57;;;;;;;13.32;6.13;;;20.40;97.20;;;;;;1668628;29;20210;-69
2022/10/29 08:29:49;;;;;;;11.20;6.00;;;20.50;97.20;;;;;;1668754;29;20217;-69
2022/10/29 08:30:41;;;;;;;13.50;5.90;;;20.60;97.20;;;;;;1668346;29;20223;-69
2022/10/29 08:31:32;;;;;;;12.77;6.22;;;20.60;97.20;;;;;;1668574;29;20600;-69
2022/10/29 08:32:23;;;;;;;13.45;6.40;;;20.70;97.20;;;;;;1668641;29;20213;-69
2022/10/29 08:33:15;;;;;;;10.53;6.10;;;20.80;97.20;;;;;;1668692;29;20201;-70
2022/10/29 08:34:05;;;;;;;11.27;6.07;;;20.80;97.20;;;;;;1668278;29;20210;-70
2022/10/29 08:34:57;;;;;;;13.43;6.07;;;20.90;97.20;;;;;;1668729;29;20199;-70
2022/10/29 08:35:48;;;;;;;12.02;6.18;;;21.00;97.20;;;;;;1668358;29;20226;-70
2022/10/29 08:36:41;;;;;;;11.70;5.53;;;21.10;97.20;;;;;;1667722;29;20202;-69
2022/10/29 08:37:33;;;;;;;15.25;6.25;;;21.10;97.20;;;;;;1667877;29;20700;-70
2022/10/29 08:38:25;;;;;;;10.95;5.60;;;21.20;97.20;;;;;;1668003;29;20254;-69
2022/10/29 08:39:15;;;;;;;9.77;5.57;;;21.30;97.20;;;;;;1667900;29;20244;-69
2022/10/29 08:40:12;;;;;;;10.77;5.30;;;21.30;97.20;;;;;;1668588;29;20210;-70
2022/10/29 08:41:26;;;;;;;11.48;6.25;;;21.40;97.20;;;;;;1668714;29;20218;-70
2022/10/29 08:42:28;;;;;;;14.38;5.72;;;21.50;97.20;;;;;;1668698;29;20224;-70
2022/10/29 08:43:45;;;;;;;12.45;5.45;;;21.60;97.20;;;;;;1668674;29;20290;-70
2022/10/29 08:45:07;;;;;;;12.80;5.70;;;21.70;97.20;;;;;;1668326;29;20206;-70
2022/10/29 08:45:59;;;;;;;17.60;7.78;;;21.80;97.20;;;;;;1668480;29;20238;-70
2022/10/29 08:46:55;;;;;;;13.10;5.85;;;21.90;97.20;;;;;;1668230;29;20210;-70
2022/10/29 08:48:04;;;;;;;11.95;6.40;;;21.90;97.20;;;;;;1668460;29;20217;-70
2022/10/29 08:49:02;;;;;;;14.35;6.22;;;22.00;97.20;;;;;;1668634;29;20263;-70
2022/10/29 08:50:03;;;;;;;13.00;7.05;;;22.00;97.20;;;;;;1668657;29;20597;-70
2022/10/29 08:51:00;;;;;;;11.38;6.97;;;22.10;97.20;;;;;;1668555;29;20713;-70
2022/10/29 08:51:57;;;;;;;21.13;8.40;;;22.20;97.20;;;;;;1668591;29;20243;-70
2022/10/29 08:52:51;;;;;;;13.50;7.20;;;22.20;97.20;;;;;;1668526;29;20218;-70
2022/10/29 08:53:47;;;;;;;18.77;9.48;;;22.30;97.20;;;;;;1668548;29;20211;-70
2022/10/29 08:54:40;;;;;;;14.95;8.13;;;22.40;97.20;;;;;;1668268;29;20205;-69
2022/10/29 08:55:36;;;;;;;15.15;7.57;;;22.40;97.20;;;;;;1668616;29;20203;-70
2022/10/29 08:56:29;;;;;;;10.52;6.10;;;22.50;97.20;;;;;;1668285;29;20218;-70
2022/10/29 08:57:23;;;;;;;9.45;6.05;;;22.60;97.20;;;;;;1668416;29;20576;-70
2022/10/29 08:58:25;;;;;;;12.52;6.50;;;22.60;97.20;;;;;;1668500;29;20211;-70
2022/10/29 08:59:20;;;;;;;16.08;6.75;;;22.70;97.20;;;;;;1668547;29;20609;-70
2022/10/29 09:00:15;;;;;;;14.23;7.40;;;22.80;97.20;;;;;;1668504;29;20669;-71
2022/10/29 09:01:11;;;;;;;13.73;5.78;;;22.80;97.20;;;;;;1668537;29;20210;-70
2022/10/29 09:02:03;;;;;;;11.25;5.72;;;22.80;97.20;;;;;;1668568;29;20229;-70
2022/10/29 09:02:56;;;;;;;10.90;6.75;;;22.90;97.20;;;;;;1668527;29;20582;-70
2022/10/29 09:03:47;;;;;;;8.80;5.80;;;22.90;97.20;;;;;;1668461;29;20234;-70
2022/10/29 09:04:38;;;;;;;11.38;4.88;;;22.90;97.20;;;;;;1668255;29;20230;-70
2022/10/29 09:05:36;;;;;;;10.43;5.90;;;22.90;97.20;;;;;;1668557;29;20213;-70
2022/10/29 09:06:39;;;;;;;13.00;5.57;;;23.00;97.20;;;;;;1668128;29;20234;-70
2022/10/29 09:07:58;;;;;;;19.40;6.07;;;23.00;97.20;;;;;;1668463;29;20584;-70
2022/10/29 09:09:17;;;;;;;14.23;5.32;;;23.00;97.20;;;;;;1668424;29;20233;-70
2022/10/29 09:10:15;;;;;;;12.93;5.82;;;23.10;97.20;;;;;;1668418;29;20215;-70
2022/10/29 09:11:22;;;;;;;10.20;5.50;;;23.20;97.20;;;;;;1668489;29;20216;-70
2022/10/29 09:12:36;;;;;;;8.73;4.97;;;23.20;97.20;;;;;;1668432;29;20211;-70
2022/10/29 09:13:45;;;;;;;10.73;5.68;;;23.30;97.20;;;;;;1668440;29;20313;-70
2022/10/29 09:14:46;;;;;;;14.70;5.45;;;23.40;97.20;;;;;;1668251;29;20203;-70
2022/10/29 09:15:54;;;;;;;10.63;5.32;;;23.50;97.20;;;;;;1668497;29;20207;-70
2022/10/29 09:16:55;;;;;;;15.38;4.88;;;23.50;97.20;;;;;;1668063;29;20214;-70
2022/10/29 09:17:57;;;;;;;8.15;4.82;;;23.50;97.20;;;;;;1668429;29;20215;-70
2022/10/29 09:19:07;;;;;;;12.40;5.00;;;23.60;97.20;;;;;;1668467;29;20221;-70
2022/10/29 09:20:16;;;;;;;12.88;5.55;;;23.70;97.20;;;;;;1668523;29;20242;-70
2022/10/29 09:21:21;;;;;;;9.45;4.60;;;23.80;97.20;;;;;;1668498;29;20674;-71
2022/10/29 09:22:21;;;;;;;17.77;5.40;;;23.90;97.20;;;;;;1668463;29;20210;-70
2022/10/29 09:23:26;;;;;;;12.15;5.75;;;24.00;97.20;;;;;;1668404;29;20211;-70
2022/10/29 09:24:29;;;;;;;6.15;5.18;;;24.00;97.20;;;;;;1668220;29;20695;-70
2022/10/29 09:25:26;;;;;;;8.32;5.35;;;24.10;97.20;;;;;;1668497;29;20217;-70
2022/10/29 09:26:25;;;;;;;8.73;5.28;;;24.30;97.20;;;;;;1667967;29;20257;-70
2022/10/29 09:27:23;;;;;;;9.00;5.18;;;24.30;97.20;;;;;;1668407;29;20226;-71
2022/10/29 09:28:24;;;;;;;10.48;5.45;;;24.50;97.20;;;;;;1668452;29;20681;-70
2022/10/29 09:29:43;;;;;;;8.80;5.00;;;24.60;97.20;;;;;;1668532;29;20206;-70
2022/10/29 09:30:41;;;;;;;11.27;4.75;;;24.70;97.20;;;;;;1668414;29;20234;-70
2022/10/29 09:31:40;;;;;;;12.30;5.50;;;24.80;97.20;;;;;;1668279;29;20259;-70
2022/10/29 09:32:36;;;;;;;12.85;4.75;;;24.80;97.20;;;;;;1668456;29;20213;-69
2022/10/29 09:33:29;;;;;;;9.77;4.70;;;24.90;97.20;;;;;;1668381;29;20230;-70
2022/10/29 09:34:27;;;;;;;7.88;4.25;;;25.00;97.20;;;;;;1668164;29;20206;-70
2022/10/29 09:35:21;;;;;;;9.35;4.65;;;25.10;97.20;;;;;;1668484;29;20239;-70